Time;durP1;ratioP1;P1;durP2;ratioP2;P2;SDS_P1;SDS_P2;PMS_P1;PMS_P2;Temp;Humidity;BMP_temperature;BMP_pressure;BME280_temperature;BME280_humidity;BME280_pressure;Samples;Min_cycle;Max_cycle;Signal;HPM_P1;HPM_P2
2022/07/31 00:00:39;;;;;;;3.17;1.83;;;;;;;20.94;63.35;101894.84;4966913;28;20023;-61
2022/07/31 00:03:05;;;;;;;3.70;1.75;;;;;;;20.95;63.50;101887.66;4968556;28;20070;-63
2022/07/31 00:05:30;;;;;;;3.10;1.60;;;;;;;21.00;63.59;101882.88;4966500;28;20031;-62
2022/07/31 00:07:56;;;;;;;8.95;2.22;;;;;;;20.96;64.09;101868.78;4968469;28;20026;-62
2022/07/31 00:10:22;;;;;;;4.63;1.95;;;;;;;21.00;65.14;101876.63;4967069;28;20405;-62
2022/07/31 00:12:48;;;;;;;6.13;2.25;;;;;;;21.03;65.48;101865.72;4950789;28;20058;-62
2022/07/31 00:15:14;;;;;;;3.97;1.80;;;;;;;21.04;66.49;101864.81;4967203;28;20026;-62
2022/07/31 00:17:40;;;;;;;7.95;2.30;;;;;;;21.11;67.25;101862.59;4967896;28;20049;-62
2022/07/31 00:20:07;;;;;;;4.22;2.20;;;;;;;21.05;67.96;101863.84;4968241;28;20030;-62
2022/07/31 00:22:32;;;;;;;6.45;2.60;;;;;;;21.06;68.73;101854.84;4967738;28;20065;-61
2022/07/31 00:24:57;;;;;;;6.95;2.42;;;;;;;21.04;69.93;101856.75;4967703;28;20449;-62
2022/07/31 00:27:23;;;;;;;4.68;2.30;;;;;;;21.15;69.84;101856.94;4966783;28;20362;-62
2022/07/31 00:29:49;;;;;;;4.45;2.40;;;;;;;21.12;69.96;101850.91;4967104;28;20524;-62
2022/07/31 00:32:14;;;;;;;9.00;2.30;;;;;;;21.09;70.02;101849.28;4967137;28;20030;-62
2022/07/31 00:34:41;;;;;;;8.05;2.30;;;;;;;21.02;70.33;101848.81;4967076;28;20023;-61
2022/07/31 00:37:06;;;;;;;4.95;2.10;;;;;;;20.97;70.68;101848.22;4968067;28;20375;-63
2022/07/31 00:39:32;;;;;;;9.55;2.67;;;;;;;20.96;70.72;101838.47;4966744;28;20047;-62
2022/07/31 00:41:57;;;;;;;7.57;2.70;;;;;;;20.93;71.44;101846.72;4967694;28;20073;-61
2022/07/31 00:44:23;;;;;;;8.98;2.75;;;;;;;20.86;71.93;101842.66;4967030;28;20031;-63
2022/07/31 00:46:48;;;;;;;11.02;2.80;;;;;;;20.77;72.17;101839.56;4967443;28;20114;-61
2022/07/31 00:49:13;;;;;;;8.05;3.00;;;;;;;20.76;72.68;101835.19;4967100;28;20023;-63
2022/07/31 00:51:39;;;;;;;4.63;2.80;;;;;;;20.71;72.48;101831.94;4967491;28;20022;-63
2022/07/31 00:54:07;;;;;;;4.97;2.53;;;;;;;20.71;72.65;101830.13;4966179;28;20035;-62
2022/07/31 00:56:32;;;;;;;6.00;3.08;;;;;;;20.66;73.56;101826.88;4966335;28;20031;-62
2022/07/31 00:58:57;;;;;;;5.97;3.03;;;;;;;20.65;73.54;101830.47;4965386;28;20038;-62
2022/07/31 01:01:23;;;;;;;5.85;3.40;;;;;;;20.62;73.72;101825.31;4966082;28;20466;-64
2022/07/31 01:03:49;;;;;;;11.52;4.13;;;;;;;20.64;73.78;101818.06;4966915;28;20059;-63
2022/07/31 01:06:14;;;;;;;5.75;3.20;;;;;;;20.65;73.92;101819.78;4981583;28;20026;-61
2022/07/31 01:08:40;;;;;;;10.60;3.72;;;;;;;20.65;74.56;101818.94;4986085;28;20098;-61
2022/07/31 01:11:16;;;;;;;10.63;3.92;;;;;;;20.63;74.54;101812.78;4967463;28;20197;-64
2022/07/31 01:13:55;;;;;;;7.40;3.83;;;;;;;20.62;74.55;101808.41;4968162;28;20030;-62
2022/07/31 01:16:22;;;;;;;;;;;;;;;20.55;75.24;101813.25;4986600;28;20026;-62
2022/07/31 01:18:48;;;;;;;9.23;3.70;;;;;;;20.58;74.44;101813.94;4985090;28;19917;-62
2022/07/31 01:21:31;;;;;;;6.70;3.40;;;;;;;20.62;73.89;101813.75;4986364;28;20027;-62
2022/07/31 01:24:14;;;;;;;8.98;3.75;;;;;;;20.59;73.49;101822.84;4954364;28;20073;-62
2022/07/31 01:26:42;;;;;;;8.25;3.10;;;;;;;20.64;72.60;101823.41;4964779;28;20069;-63
2022/07/31 01:29:27;;;;;;;7.75;3.40;;;;;;;20.74;71.81;101818.34;4965373;28;20019;-63
2022/07/31 01:32:02;;;;;;;5.80;3.20;;;;;;;20.75;71.12;101820.09;4965565;28;20026;-62
2022/07/31 01:34:35;;;;;;;7.32;2.80;;;;;;;20.75;71.41;101813.84;4966248;28;20039;-61
2022/07/31 01:37:15;;;;;;;6.18;2.92;;;;;;;20.71;71.47;101816.72;4968635;28;20136;-62
2022/07/31 01:39:45;;;;;;;6.15;3.42;;;;;;;20.70;71.50;101814.13;4985242;28;20026;-63
2022/07/31 01:42:13;;;;;;;8.65;3.40;;;;;;;20.74;71.40;101814.81;4985800;28;20042;-61
2022/07/31 01:44:43;;;;;;;7.07;3.53;;;;;;;20.76;71.26;101820.94;4967875;28;20092;-62
2022/07/31 01:47:10;;;;;;;8.25;3.67;;;;;;;20.73;71.85;101816.63;4968513;28;20054;-62
2022/07/31 01:49:36;;;;;;;9.55;3.67;;;;;;;20.68;72.21;101805.34;4968738;28;20022;-61
2022/07/31 01:52:03;;;;;;;7.35;3.72;;;;;;;20.67;72.65;101808.97;4968381;28;20041;-61
2022/07/31 01:54:29;;;;;;;8.40;3.00;;;;;;;20.66;72.52;101799.22;4949851;28;20038;-63
2022/07/31 01:56:58;;;;;;;11.00;3.10;;;;;;;20.63;72.83;101796.72;4948444;28;20030;-61
2022/07/31 01:59:24;;;;;;;7.93;3.58;;;;;;;20.63;73.10;101807.44;4964374;28;20027;-61
2022/07/31 02:01:50;;;;;;;7.43;4.03;;;;;;;20.55;73.59;101807.91;4948774;28;20022;-62
2022/07/31 02:04:17;;;;;;;7.80;3.72;;;;;;;20.52;74.08;101802.75;4964631;28;20691;-63
2022/07/31 02:06:45;;;;;;;8.63;4.13;;;;;;;20.52;74.81;101802.75;4965556;28;20035;-61
2022/07/31 02:09:11;;;;;;;8.82;3.00;;;;;;;20.51;74.51;101788.50;4965640;28;20038;-65
2022/07/31 02:11:37;;;;;;;6.32;3.50;;;;;;;20.51;75.09;101793.00;4932906;28;20039;-61
2022/07/31 02:14:02;;;;;;;4.63;3.38;;;;;;;20.44;75.58;101781.81;4965798;28;20026;-63
2022/07/31 02:16:28;;;;;;;7.50;4.03;;;;;;;20.43;76.30;101783.63;4964363;28;20031;-62
2022/07/31 02:18:54;;;;;;;8.52;4.00;;;;;;;20.41;76.78;101782.84;4949031;28;20039;-62
2022/07/31 02:21:20;;;;;;;8.05;4.03;;;;;;;20.45;76.42;101773.69;4967318;28;20061;-62
2022/07/31 02:23:45;;;;;;;6.45;3.75;;;;;;;20.48;76.37;101779.78;4968092;28;20486;-62
2022/07/31 02:26:10;;;;;;;9.32;4.05;;;;;;;20.45;76.98;101770.16;4969921;28;20027;-63
2022/07/31 02:28:37;;;;;;;10.57;4.22;;;;;;;20.43;77.43;101770.25;4968498;28;20034;-62
2022/07/31 02:31:03;;;;;;;10.07;4.75;;;;;;;20.48;77.54;101774.44;4950364;28;20443;-62
2022/07/31 02:33:28;;;;;;;11.65;4.32;;;;;;;20.45;78.31;101773.69;4969081;28;20170;-64
2022/07/31 02:35:54;;;;;;;6.55;3.67;;;;;;;20.44;78.67;101773.78;4967801;28;20086;-62
2022/07/31 02:38:22;;;;;;;12.10;4.43;;;;;;;20.45;78.90;101765.66;4969573;28;20058;-61
2022/07/31 02:40:49;;;;;;;11.30;4.70;;;;;;;20.42;79.90;101759.63;4967974;28;20166;-62
2022/07/31 02:43:15;;;;;;;10.30;5.07;;;;;;;20.40;79.64;101756.16;4952145;28;20027;-62
2022/07/31 02:45:41;;;;;;;7.85;3.83;;;;;;;20.42;79.87;101754.28;4968346;28;20027;-61
2022/07/31 02:48:08;;;;;;;9.68;4.53;;;;;;;20.39;80.39;101758.00;4968506;28;20038;-62
2022/07/31 02:50:33;;;;;;;8.32;4.57;;;;;;;20.42;80.67;101749.78;4969804;28;20023;-61
2022/07/31 02:52:59;;;;;;;9.45;4.13;;;;;;;20.42;80.95;101763.19;4973178;28;20041;-62
2022/07/31 02:55:25;;;;;;;6.28;4.28;;;;;;;20.41;80.87;101764.09;4976259;28;20118;-62
2022/07/31 02:57:50;;;;;;;7.32;3.67;;;;;;;20.42;80.78;101756.94;4951500;28;20552;-62
2022/07/31 03:00:25;;;;;;;7.72;4.00;;;;;;;20.47;80.62;101754.88;4950367;28;20117;-61
2022/07/31 03:02:52;;;;;;;7.45;4.03;;;;;;;20.46;80.58;101745.09;4969183;28;20142;-61
2022/07/31 03:05:18;;;;;;;8.02;3.85;;;;;;;20.51;80.74;101747.50;4968752;28;20039;-61
2022/07/31 03:07:44;;;;;;;6.28;3.67;;;;;;;20.55;80.29;101749.00;4969295;28;20029;-62
2022/07/31 03:10:09;;;;;;;8.52;4.22;;;;;;;20.52;81.14;101744.72;4969017;28;20026;-62
2022/07/31 03:12:45;;;;;;;10.23;4.22;;;;;;;20.50;80.77;101746.63;4973726;28;20018;-62
2022/07/31 03:15:13;;;;;;;7.38;4.43;;;;;;;20.57;80.92;101739.09;4970486;28;20033;-62
2022/07/31 03:17:40;;;;;;;7.70;4.35;;;;;;;20.62;80.20;101739.63;4970346;28;20038;-62
2022/07/31 03:20:07;;;;;;;8.98;4.10;;;;;;;20.60;80.38;101730.00;4971741;28;20026;-62
2022/07/31 03:22:32;;;;;;;6.50;3.90;;;;;;;20.59;80.73;101734.50;4988534;28;20409;-62
2022/07/31 03:24:59;;;;;;;6.13;4.68;;;;;;;20.61;80.70;101740.59;4971260;28;20041;-61
2022/07/31 03:27:24;;;;;;;11.68;5.13;;;;;;;20.61;80.35;101737.94;4985947;28;20105;-62
2022/07/31 03:29:50;;;;;;;9.18;5.00;;;;;;;20.64;80.27;101737.72;4968674;28;20466;-62
2022/07/31 03:32:15;;;;;;;7.45;5.20;;;;;;;20.59;80.85;101745.22;4967993;28;20030;-62
2022/07/31 03:34:40;;;;;;;9.93;4.55;;;;;;;20.65;80.44;101747.47;4967728;28;20029;-62
2022/07/31 03:37:06;;;;;;;8.85;4.63;;;;;;;20.67;80.29;101744.72;4969197;28;20031;-62
2022/07/31 03:39:31;;;;;;;7.80;3.70;;;;;;;20.68;80.20;101736.56;4968083;28;20027;-62
2022/07/31 03:41:56;;;;;;;9.30;5.15;;;;;;;20.65;80.22;101744.81;4968462;28;20421;-61
2022/07/31 03:44:22;;;;;;;7.13;4.75;;;;;;;20.66;80.50;101745.69;4950621;28;20073;-61
2022/07/31 03:46:47;;;;;;;7.43;4.60;;;;;;;20.69;80.60;101745.47;4968002;28;20093;-62
2022/07/31 03:49:13;;;;;;;6.32;3.85;;;;;;;20.75;80.10;101730.84;4968460;28;20027;-62
2022/07/31 03:51:38;;;;;;;8.90;3.90;;;;;;;20.76;80.25;101735.22;4950627;28;20046;-61
2022/07/31 03:54:03;;;;;;;10.02;4.07;;;;;;;20.77;80.25;101727.09;4969089;28;20556;-62
2022/07/31 03:56:29;;;;;;;8.23;4.05;;;;;;;20.77;80.13;101731.63;4968067;28;20713;-61
2022/07/31 03:58:54;;;;;;;4.53;3.65;;;;;;;20.83;80.11;101725.88;4967934;28;20045;-61
2022/07/31 04:01:20;;;;;;;12.07;4.50;;;;;;;20.78;79.97;101723.50;4967497;28;20035;-62
2022/07/31 04:03:46;;;;;;;7.82;3.78;;;;;;;20.81;79.87;101723.28;4967742;28;20043;-63
2022/07/31 04:06:11;;;;;;;8.75;3.88;;;;;;;20.83;79.72;101726.72;4967479;28;20039;-63
2022/07/31 04:08:36;;;;;;;6.60;4.35;;;;;;;20.79;79.68;101727.88;4968596;28;20062;-62
2022/07/31 04:11:02;;;;;;;6.82;3.65;;;;;;;20.87;79.71;101727.41;4966998;28;20474;-63
2022/07/31 04:13:27;;;;;;;7.07;4.07;;;;;;;20.86;79.30;101720.28;4966807;28;20039;-62
2022/07/31 04:15:52;;;;;;;5.75;4.00;;;;;;;20.91;79.31;101718.22;4967575;28;20022;-61
2022/07/31 04:18:18;;;;;;;6.57;3.78;;;;;;;20.89;78.93;101720.09;4966937;28;20061;-61
2022/07/31 04:20:43;;;;;;;10.77;4.47;;;;;;;20.84;79.47;101712.34;4967026;28;20068;-63
2022/07/31 04:23:09;;;;;;;8.23;4.28;;;;;;;20.91;79.39;101726.25;4967705;28;20492;-63
2022/07/31 04:25:34;;;;;;;8.20;4.47;;;;;;;20.89;79.46;101720.09;4967902;28;20473;-63
2022/07/31 04:28:00;;;;;;;7.30;4.13;;;;;;;20.92;79.29;101725.28;4966092;28;20041;-64
2022/07/31 04:30:25;;;;;;;8.38;4.90;;;;;;;20.88;79.86;101723.75;4967723;28;20030;-63
2022/07/31 04:32:51;;;;;;;8.50;4.82;;;;;;;20.86;80.27;101725.66;4966868;28;20030;-64
2022/07/31 04:35:16;;;;;;;9.68;4.70;;;;;;;20.89;79.88;101714.75;4967531;28;20027;-64
2022/07/31 04:37:41;;;;;;;7.70;4.25;;;;;;;20.94;79.51;101707.31;4967262;28;20030;-64
2022/07/31 04:40:09;;;;;;;12.57;4.82;;;;;;;20.90;79.98;101704.94;4967559;28;20042;-65
2022/07/31 04:42:34;;;;;;;8.07;4.32;;;;;;;20.96;79.73;101712.56;4966964;28;20065;-65
2022/07/31 04:45:00;;;;;;;8.65;5.03;;;;;;;20.99;79.45;101704.34;4967148;28;20110;-65
2022/07/31 04:47:25;;;;;;;10.80;6.18;;;;;;;21.01;79.40;101706.94;4966303;28;20026;-63
2022/07/31 04:49:51;;;;;;;9.60;6.00;;;;;;;21.05;79.46;101708.44;4965383;28;20429;-65
2022/07/31 04:52:16;;;;;;;11.40;6.22;;;;;;;21.04;79.24;101710.25;4947189;28;20406;-65
2022/07/31 04:54:42;;;;;;;10.20;6.00;;;;;;;21.05;79.23;101708.44;4967093;28;20045;-64
2022/07/31 04:57:07;;;;;;;14.77;6.72;;;;;;;21.08;79.69;101702.88;4966898;28;20073;-63
2022/07/31 04:59:33;;;;;;;11.82;5.93;;;;;;;21.12;79.46;101703.53;4966302;28;20027;-64
2022/07/31 05:01:58;;;;;;;13.70;6.45;;;;;;;21.15;79.14;101704.19;4966848;28;20110;-64
2022/07/31 05:04:25;;;;;;;14.57;6.50;;;;;;;21.12;79.62;101706.22;4966833;28;20734;-64
2022/07/31 05:06:51;;;;;;;12.95;6.63;;;;;;;21.21;79.09;101703.81;4966356;28;20885;-64
2022/07/31 05:09:19;;;;;;;13.18;6.82;;;;;;;21.21;79.27;101705.63;4966467;28;20031;-63
2022/07/31 05:11:46;;;;;;;11.00;7.28;;;;;;;21.25;79.21;101703.59;4966734;28;20038;-64
2022/07/31 05:14:12;;;;;;;13.02;6.53;;;;;;;21.24;79.40;101709.91;4965290;28;20030;-64
2022/07/31 05:16:37;;;;;;;13.18;7.38;;;;;;;21.28;79.44;101708.75;4966892;28;20027;-63
2022/07/31 05:19:04;;;;;;;12.38;8.00;;;;;;;21.30;79.58;101705.00;4966961;28;20034;-64
2022/07/31 05:21:29;;;;;;;18.02;8.30;;;;;;;21.30;79.73;101710.38;4965531;28;20033;-63
2022/07/31 05:23:55;;;;;;;14.60;8.63;;;;;;;21.33;79.96;101701.25;4947892;28;20031;-65
2022/07/31 05:26:21;;;;;;;12.32;7.60;;;;;;;21.33;79.98;101706.63;4948752;28;20027;-64
2022/07/31 05:28:48;;;;;;;16.30;9.05;;;;;;;21.26;80.82;101705.31;4965494;28;20039;-65
2022/07/31 05:31:14;;;;;;;20.33;8.93;;;;;;;21.36;80.35;101705.56;4966534;28;20510;-65
2022/07/31 05:33:39;;;;;;;14.07;8.55;;;;;;;21.39;80.48;101706.22;4964847;28;20027;-65
2022/07/31 05:36:05;;;;;;;16.33;9.35;;;;;;;21.32;80.85;101699.56;4966559;28;20575;-64
2022/07/31 05:38:31;;;;;;;17.25;9.70;;;;;;;21.38;80.87;101706.31;4966045;28;20037;-65
2022/07/31 05:40:56;;;;;;;17.30;9.13;;;;;;;21.42;80.95;101697.97;4965986;28;20114;-63
2022/07/31 05:43:21;;;;;;;21.67;9.52;;;;;;;21.41;81.00;101701.63;4965283;28;20027;-64
2022/07/31 05:45:47;;;;;;;17.35;9.25;;;;;;;21.49;80.92;101702.94;4966198;28;20082;-64
2022/07/31 05:48:13;;;;;;;20.92;10.85;;;;;;;21.57;80.51;101704.13;4966121;28;20027;-64
2022/07/31 05:50:42;;;;;;;16.85;10.05;;;;;;;21.62;80.71;101706.50;4965401;28;20026;-64
2022/07/31 05:53:11;;;;;;;23.48;10.30;;;;;;;21.63;80.50;101692.13;4965711;28;20030;-64
2022/07/31 05:55:38;;;;;;;22.65;11.15;;;;;;;21.69;80.69;101683.66;4965490;28;20015;-65
2022/07/31 05:58:03;;;;;;;23.10;12.27;;;;;;;21.62;81.49;101686.88;4964677;28;20035;-64
2022/07/31 06:00:29;;;;;;;20.50;10.13;;;;;;;21.69;81.21;101688.16;4965848;28;20173;-63
2022/07/31 06:02:55;;;;;;;20.20;11.68;;;;;;;21.79;80.76;101691.13;4966166;28;20046;-65
2022/07/31 06:05:21;;;;;;;26.85;13.38;;;;;;;21.85;80.80;101690.69;4965798;28;20039;-65
2022/07/31 06:07:46;;;;;;;25.45;13.45;;;;;;;21.76;81.04;101683.28;4965788;28;20007;-65
2022/07/31 06:10:11;;;;;;;30.92;14.35;;;;;;;21.89;80.50;101680.63;4965884;28;20114;-65
2022/07/31 06:12:37;;;;;;;33.15;14.65;;;;;;;21.71;81.83;101684.41;4965850;28;20027;-64
2022/07/31 06:15:02;;;;;;;22.92;12.70;;;;;;;21.87;81.38;101694.13;4965580;28;20030;-66
2022/07/31 06:17:27;;;;;;;21.83;12.30;;;;;;;22.02;80.58;101691.34;4965375;28;20069;-62
2022/07/31 06:19:53;;;;;;;26.88;15.48;;;;;;;21.95;81.33;101712.38;4964790;28;20106;-63
2022/07/31 06:22:18;;;;;;;26.80;14.63;;;;;;;22.00;81.24;101704.03;4965730;28;20058;-63
2022/07/31 06:24:44;;;;;;;27.15;15.13;;;;;;;22.07;80.67;101705.31;4965599;28;20131;-62
2022/07/31 06:27:09;;;;;;;26.05;14.18;;;;;;;22.09;80.96;101704.25;4965290;28;20027;-63
2022/07/31 06:29:34;;;;;;;23.75;13.38;;;;;;;22.26;79.98;101693.28;4965025;28;20027;-64
2022/07/31 06:32:00;;;;;;;26.10;15.10;;;;;;;22.18;80.75;101699.19;4965392;28;20469;-64
2022/07/31 06:34:25;;;;;;;32.47;16.55;;;;;;;22.22;80.77;101688.13;4964778;28;20019;-63
2022/07/31 06:36:50;;;;;;;24.80;14.93;;;;;;;22.31;80.67;101691.16;4965301;28;20058;-64
2022/07/31 06:39:16;;;;;;;26.65;14.27;;;;;;;22.50;80.02;101690.69;4964836;28;20038;-63
2022/07/31 06:41:46;;;;;;;25.45;14.57;;;;;;;22.56;80.09;101690.25;4964467;28;20070;-64
2022/07/31 06:44:15;;;;;;;27.67;15.63;;;;;;;22.67;79.55;101691.34;4963898;28;20216;-64
2022/07/31 06:46:41;;;;;;;31.20;15.82;;;;;;;22.71;79.84;101682.06;4964575;28;20486;-64
2022/07/31 06:49:06;;;;;;;26.52;16.17;;;;;;;22.78;79.28;101690.56;4964799;28;20040;-64
2022/07/31 06:51:31;;;;;;;21.90;14.52;;;;;;;22.94;79.02;101687.59;4964759;28;20102;-64
2022/07/31 06:53:58;;;;;;;23.25;14.23;;;;;;;22.94;78.57;101690.28;4965192;28;20418;-63
2022/07/31 06:56:24;;;;;;;30.20;16.88;;;;;;;22.86;78.79;101693.53;4961681;28;20023;-63
2022/07/31 06:58:49;;;;;;;25.77;15.65;;;;;;;22.81;79.24;101684.94;4963968;28;20050;-63
2022/07/31 07:01:14;;;;;;;22.90;13.85;;;;;;;22.81;79.73;101679.56;4964407;28;20488;-64
2022/07/31 07:03:39;;;;;;;31.00;16.73;;;;;;;22.78;79.29;101687.88;4964085;28;20035;-63
2022/07/31 07:06:05;;;;;;;27.88;17.15;;;;;;;22.66;81.05;101685.09;4965006;28;20030;-64
2022/07/31 07:08:30;;;;;;;25.92;15.43;;;;;;;22.84;79.82;101696.34;4965750;28;20426;-63
2022/07/31 07:10:56;;;;;;;28.23;16.08;;;;;;;22.82;79.31;101692.06;4967832;28;20382;-63
2022/07/31 07:13:21;;;;;;;22.75;14.20;;;;;;;22.83;78.74;101691.06;4967443;28;20031;-63
2022/07/31 07:15:46;;;;;;;26.85;15.00;;;;;;;22.69;79.70;101690.25;4968045;28;20019;-65
2022/07/31 07:18:13;;;;;;;30.02;15.05;;;;;;;22.70;79.53;101691.13;4967561;28;20035;-63
2022/07/31 07:20:38;;;;;;;26.92;14.88;;;;;;;22.78;79.08;101698.63;4967423;28;20031;-63
2022/07/31 07:23:04;;;;;;;26.42;15.05;;;;;;;22.71;78.73;101699.06;4968992;28;20073;-64
2022/07/31 07:25:29;;;;;;;26.95;14.85;;;;;;;22.61;79.58;101689.97;4968326;28;20061;-63
2022/07/31 07:27:55;;;;;;;27.23;14.52;;;;;;;22.62;79.48;101683.59;4966895;28;20027;-65
2022/07/31 07:30:27;;;;;;;24.63;15.15;;;;;;;22.53;79.81;101678.84;4968007;28;20340;-65
2022/07/31 07:32:52;;;;;;;23.10;14.93;;;;;;;22.50;79.77;101673.69;4966671;28;20058;-64
2022/07/31 07:35:18;;;;;;;29.20;15.60;;;;;;;22.58;79.66;101674.06;4967679;28;20113;-65
2022/07/31 07:37:43;;;;;;;26.27;15.82;;;;;;;22.61;79.70;101668.47;4967637;28;20050;-63
2022/07/31 07:40:09;;;;;;;28.08;15.45;;;;;;;22.65;79.75;101678.00;4968149;28;20104;-64
2022/07/31 07:42:34;;;;;;;26.00;14.93;;;;;;;22.60;79.89;101677.47;4966969;28;20393;-64
2022/07/31 07:44:59;;;;;;;25.75;16.13;;;;;;;22.64;80.16;101675.44;4968542;28;20034;-64
2022/07/31 07:47:25;;;;;;;31.20;16.08;;;;;;;22.62;80.62;101674.69;4967411;28;20047;-64
2022/07/31 07:49:50;;;;;;;25.52;15.63;;;;;;;22.65;81.06;101674.47;4968238;28;20540;-65
2022/07/31 07:52:16;;;;;;;21.23;13.77;;;;;;;22.71;81.01;101672.19;4967339;28;20093;-65
2022/07/31 07:54:42;;;;;;;29.35;17.17;;;;;;;22.76;80.51;101681.75;4966983;28;20035;-65
2022/07/31 07:57:08;;;;;;;34.35;17.40;;;;;;;22.68;80.54;101676.94;4967911;28;20034;-64
2022/07/31 07:59:34;;;;;;;27.38;16.30;;;;;;;22.84;80.41;101682.91;4967348;28;20558;-67
2022/07/31 08:01:59;;;;;;;30.17;17.25;;;;;;;22.93;79.33;101685.88;4981253;28;20165;-66
2022/07/31 08:04:24;;;;;;;26.73;16.27;;;;;;;22.89;79.92;101687.94;4986283;28;20287;-67
2022/07/31 08:06:50;;;;;;;24.75;16.83;;;;;;;23.02;79.39;101684.34;4960299;28;20021;-65
2022/07/31 08:09:15;;;;;;;21.40;14.75;;;;;;;23.03;79.54;101681.53;4967216;28;20043;-65
2022/07/31 08:11:41;;;;;;;26.52;16.13;;;;;;;22.95;79.65;101684.81;4967786;28;20011;-64
2022/07/31 08:14:06;;;;;;;25.00;16.00;;;;;;;22.91;79.84;101679.78;4965112;28;20379;-65
2022/07/31 08:16:31;;;;;;;33.75;17.38;;;;;;;22.93;79.58;101680.50;4962846;28;20401;-66
2022/07/31 08:18:57;;;;;;;29.45;16.42;;;;;;;22.99;79.73;101671.16;4976933;28;20038;-65
2022/07/31 08:21:22;;;;;;;22.10;14.50;;;;;;;23.08;79.56;101667.75;4985816;28;20049;-61
2022/07/31 08:23:48;;;;;;;27.52;16.52;;;;;;;23.17;79.10;101667.06;4984831;28;20118;-66
2022/07/31 08:26:13;;;;;;;30.40;15.07;;;;;;;23.30;78.72;101664.31;4972413;28;20026;-64
2022/07/31 08:28:38;;;;;;;27.17;15.57;;;;;;;23.41;77.95;101668.03;4966161;28;20027;-64
2022/07/31 08:31:04;;;;;;;26.33;15.82;;;;;;;23.40;78.10;101652.91;4967523;28;20045;-65
2022/07/31 08:33:31;;;;;;;22.38;15.23;;;;;;;23.63;77.16;101659.19;4966633;28;20023;-64
2022/07/31 08:35:57;;;;;;;25.65;16.15;;;;;;;23.77;76.71;101651.88;4966831;28;20589;-64
2022/07/31 08:38:22;;;;;;;21.38;16.70;;;;;;;23.71;77.68;101653.22;4964640;28;20061;-63
2022/07/31 08:40:47;;;;;;;28.92;18.15;;;;;;;23.46;78.03;101661.38;4965605;28;20026;-65
2022/07/31 08:43:13;;;;;;;26.02;17.08;;;;;;;23.49;78.52;101660.28;4947793;28;20019;-65
2022/07/31 08:45:40;;;;;;;22.63;15.57;;;;;;;23.34;79.43;101668.50;4963756;28;20095;-64
2022/07/31 08:48:06;;;;;;;17.67;12.85;;;;;;;23.75;76.61;101670.00;4965141;28;20110;-66
2022/07/31 08:50:33;;;;;;;19.40;12.50;;;;;;;23.84;76.55;101666.59;4947805;28;20026;-64
2022/07/31 08:52:59;;;;;;;22.73;14.80;;;;;;;23.80;76.65;101668.66;4963575;28;20058;-63
2022/07/31 08:55:24;;;;;;;20.23;12.23;;;;;;;23.92;75.95;101668.66;4963706;28;20359;-63
2022/07/31 08:57:50;;;;;;;22.60;12.80;;;;;;;23.77;76.41;101678.78;4961814;28;20027;-64
2022/07/31 09:00:18;;;;;;;19.95;11.73;;;;;;;23.78;76.14;101675.16;4964487;28;20045;-64
2022/07/31 09:02:43;;;;;;;17.30;11.07;;;;;;;23.87;75.76;101665.50;4965328;28;20043;-64
2022/07/31 09:05:09;;;;;;;14.02;10.43;;;;;;;24.06;75.60;101672.97;4965411;28;20031;-64
2022/07/31 09:07:34;;;;;;;15.30;10.23;;;;;;;24.29;74.19;101675.72;4961855;28;20029;-64
2022/07/31 09:10:00;;;;;;;18.85;11.27;;;;;;;24.25;73.90;101658.09;4959813;28;20042;-64
2022/07/31 09:12:29;;;;;;;15.15;10.82;;;;;;;24.02;74.74;101666.13;4963599;28;20029;-63
2022/07/31 09:14:55;;;;;;;18.55;12.43;;;;;;;23.92;75.16;101664.16;4965294;28;20397;-65
2022/07/31 09:17:30;;;;;;;16.45;12.07;;;;;;;23.80;75.78;101662.41;4964189;28;20030;-64
2022/07/31 09:19:56;;;;;;;18.48;13.23;;;;;;;23.86;75.27;101656.56;4965271;28;20030;-63
2022/07/31 09:22:28;;;;;;;22.23;13.52;;;;;;;23.75;75.68;101652.00;4965229;28;20022;-64
2022/07/31 09:25:05;;;;;;;19.40;14.48;;;;;;;23.57;76.22;101657.84;4964977;28;20027;-64
2022/07/31 09:27:30;;;;;;;21.77;15.23;;;;;;;23.54;76.19;101652.69;4964626;28;20043;-64
2022/07/31 09:29:57;;;;;;;26.73;16.35;;;;;;;23.39;76.88;101670.00;4965885;28;20424;-65
2022/07/31 09:32:22;;;;;;;22.27;16.73;;;;;;;23.19;77.32;101658.91;4963182;28;20159;-63
2022/07/31 09:34:48;;;;;;;23.08;16.67;;;;;;;23.24;77.36;101659.44;4965810;28;20489;-64
2022/07/31 09:37:15;;;;;;;22.67;17.20;;;;;;;23.30;76.93;101660.78;4964632;28;20465;-63
2022/07/31 09:39:41;;;;;;;22.98;17.42;;;;;;;23.20;77.02;101664.16;4964436;28;20018;-64
2022/07/31 09:42:07;;;;;;;23.63;17.83;;;;;;;22.94;78.29;101666.13;4965134;28;20019;-64
2022/07/31 09:44:40;;;;;;;25.48;17.42;;;;;;;23.09;78.11;101666.81;4964830;28;20027;-64
2022/07/31 09:47:06;;;;;;;21.55;15.95;;;;;;;23.11;78.17;101659.47;4965080;28;20019;-64
2022/07/31 09:49:33;;;;;;;21.08;15.68;;;;;;;23.01;79.11;101656.63;4964801;28;20022;-65
2022/07/31 09:51:59;;;;;;;21.80;17.33;;;;;;;23.08;78.74;101662.38;4964921;28;20029;-64
2022/07/31 09:54:26;;;;;;;21.83;16.65;;;;;;;23.07;78.89;101660.69;4963918;28;20015;-63
2022/07/31 09:56:52;;;;;;;21.60;17.45;;;;;;;22.93;80.00;101665.25;4964591;28;20071;-65
2022/07/31 09:59:17;;;;;;;23.75;18.02;;;;;;;22.75;80.46;101666.59;4964186;28;20043;-65
2022/07/31 10:01:47;;;;;;;23.02;18.33;;;;;;;22.54;81.65;101669.81;4964565;28;20109;-64
2022/07/31 10:04:15;;;;;;;23.77;17.13;;;;;;;22.66;81.55;101668.97;4964717;28;20489;-64
2022/07/31 10:06:40;;;;;;;24.92;17.42;;;;;;;22.62;81.50;101664.81;4962676;28;20033;-65
2022/07/31 10:09:06;;;;;;;25.52;18.42;;;;;;;22.50;81.96;101660.28;4965223;28;20031;-64
2022/07/31 10:11:32;;;;;;;24.27;17.27;;;;;;;22.45;82.09;101665.97;4964676;28;20517;-67
2022/07/31 10:14:00;;;;;;;23.60;17.88;;;;;;;22.32;82.74;101658.81;4947022;28;20397;-64
2022/07/31 10:16:27;;;;;;;22.27;15.93;;;;;;;22.37;82.92;101663.88;4947667;28;20014;-66
2022/07/31 10:18:56;;;;;;;22.05;16.30;;;;;;;22.44;82.94;101662.47;4934955;28;20138;-68
2022/07/31 10:21:23;;;;;;;20.92;16.15;;;;;;;22.46;83.02;101660.50;4946731;28;20022;-64
2022/07/31 10:23:49;;;;;;;21.45;15.30;;;;;;;22.51;82.97;101654.81;4964415;28;20479;-64
2022/07/31 10:26:15;;;;;;;20.45;15.38;;;;;;;22.51;82.78;101665.53;4964348;28;20090;-64
2022/07/31 10:28:40;;;;;;;23.35;14.43;;;;;;;22.55;82.50;101661.66;4964256;28;20025;-64
2022/07/31 10:31:06;;;;;;;21.90;14.23;;;;;;;22.59;82.10;101660.53;4964146;28;20158;-65
2022/07/31 10:33:32;;;;;;;25.33;14.30;;;;;;;22.59;82.17;101652.47;4964163;28;20323;-63
2022/07/31 10:36:12;;;;;;;19.42;13.23;;;;;;;22.55;82.42;101658.13;4961086;28;20029;-65
2022/07/31 10:38:49;;;;;;;18.17;12.60;;;;;;;22.55;82.34;101661.66;4965249;28;20045;-65
2022/07/31 10:41:24;;;;;;;18.40;11.63;;;;;;;22.50;82.71;101657.59;4947135;28;20077;-65
2022/07/31 10:43:59;;;;;;;23.23;10.80;;;;;;;22.37;83.17;101657.63;4949363;28;20053;-65
2022/07/31 10:46:29;;;;;;;14.48;9.95;;;;;;;22.24;84.22;101646.91;4967095;28;20511;-67
2022/07/31 10:48:55;;;;;;;16.60;9.82;;;;;;;22.38;83.72;101646.78;4968221;28;20034;-65
2022/07/31 10:51:21;;;;;;;14.32;8.52;;;;;;;22.34;83.92;101650.66;4968899;28;20046;-65
2022/07/31 10:54:04;;;;;;;13.18;8.00;;;;;;;22.32;84.07;101644.53;4951542;28;20046;-64
2022/07/31 10:56:42;;;;;;;18.00;7.97;;;;;;;22.37;84.06;101647.75;4968581;28;20031;-66
2022/07/31 10:59:07;;;;;;;18.67;8.27;;;;;;;22.43;84.49;101641.09;4965861;28;20039;-63
2022/07/31 11:01:47;;;;;;;12.80;6.22;;;;;;;22.64;83.82;101649.44;4968489;28;20034;-64
2022/07/31 11:04:12;;;;;;;15.38;6.82;;;;;;;22.78;83.26;101639.53;4968479;28;20533;-63
2022/07/31 11:06:42;;;;;;;13.60;7.55;;;;;;;22.83;83.10;101653.47;4950303;28;20154;-63
2022/07/31 11:09:07;;;;;;;14.43;6.53;;;;;;;22.86;83.27;101645.19;4968586;28;20041;-63
2022/07/31 11:11:35;;;;;;;12.23;5.97;;;;;;;22.52;84.44;101642.25;4968458;28;20022;-61
2022/07/31 11:14:01;;;;;;;11.45;5.20;;;;;;;22.41;84.95;101633.13;4967271;28;20046;-61